Sioux Falls, SD (57101)

2:43 AM CDT on August 18, 2017 (GMT -0500)
229 and rice street Sioux Falls SD | | Change Station

Elev 1397 ft 43.56 °N, 96.70 °W | Updated 22 seconds ago

Rain
Rain
66.4 °F
Feels Like 66.4 °F
N
0.0
Wind Variable Wind from NNE
Gusts 1.8 mph

Today
High -- | Low -- °F
--% Chance of Precip.
Yesterday
High -- | Low -- °F
Precip. -- in
Pressure 29.91 in
Visibility 7.0 miles
Clouds Scattered Clouds 8000 ft
Overcast 9500 ft
Dew Point 62 °F
Humidity 87%
Rainfall 0.09 in
Snow Depth Not available.
6:35 AM 8:25 PM
Waning Crescent, 16% visible
METAR KFSD 180656Z AUTO 02004KT 7SM RA SCT080 OVC095 18/17 A2993 RMK AO2 LTG DSNT S AND SW RAB16 SLP129 P0002 T01830167
Pressure 29.91 in
Visibility 7.0 miles
Clouds Scattered Clouds 8000 ft
Overcast 9500 ft
Dew Point 62 °F
Humidity 87%
Rainfall 0.09 in
Snow Depth Not available.
6:35 AM 8:25 PM
Waning Crescent, 16% visible
METAR KFSD 180656Z AUTO 02004KT 7SM RA SCT080 OVC095 18/17 A2993 RMK AO2 LTG DSNT S AND SW RAB16 SLP129 P0002 T01830167

Get Severe Weather Alerts

Thanks for signing up!

Be on the lookout for a verification email in your inbox.

You'll start receiving the daily forecast at 6 AM.

×

10-Day Weather Forecast

Almanac

Astronomy

Aug. 18, 2017 Rise Set
Actual Time
Civil Twilight
Nautical Twilight
Astronomical Twilight
Moon
Length of Visible Light
Length of Day
Tomorrow will be .
, % of the Moon is Illuminated

Today's Extremes

State Highs State Lows

Community

WunderPhotos

Category 6

Welcome to Category 6. This is the collective home for Weather Underground's featured writeups by Dr. Jeff Masters (right), Bob Henson (left), Chris Burt, and other regular contributors.

Nearby

Air Quality

  Air Quality AQ Index Pollutant
Not available.

Snow Depth

Station Depth Elevation

Earthquake Activity

City Distance Mag. Time & Date
Minimum magnitude displayed is 2.5.

Coastal Water Temperatures

Place Temperature

Stations

Nearby Weather Stations

Station Location Temp. Windchill Dew Point Humidity Wind Precip. Elev Updated Type
                   

Watches & Warnings

There are currently no watches in effect.